Temp: 15.7°C   Baro: 1010.0mb
  Wind: 12.1mph   Dir: WSW (237°)
  Rain: 0.4mm (0.0mm/hr)
  Sun: 253W/m2  Humidity: 73%

Historic data

Bath Spa Weather Station Historical Data
Daily Summary for April 18, 2024 Units:  Both    English   Metric
Daily Weekly Monthly Yearly Custom
  High: Low: Average:
Temperature: 54.2 °F /  12.3 °C 34.7 °F /  1.5 °C 45 °F /  7.2 °C
Dew Point: 44.1 °F /  6.7 °C 29.6 °F /  -1.3 °C 36.7 °F /  2.6 °C
Humidity: 87% 40.4% 74%
Wind Speed: 13.2mph /  21.2km/h - 4.9mph /  7.9km/h
Wind Gust: 21mph /  33.8km/h - -
Wind- - West
Pressure: 30.29 in /  1025.6 hPa 30.14 in /  1020.5 hPa -
Precipitation: 0.00 in /  0 mm    
Historical Graphs
 
 
Tabular Data for April 18, 2024
Time Temperature Dew Point Pressure Wind Wind Speed Wind Gust Humidity Rainfall Rate (Hourly) solar
00:09 41.6 °F /  5.3 °C 35 °F /  1.7 °C 30.14in /  1020.5hPa NNW 1.7mph /  2.7km/h 5mph /  8km/h 77% 0.00in /  0mm 0 W/m2
00:14 41.4 °F /  5.2 °C 34.8 °F /  1.6 °C 30.14in /  1020.5hPa NNW 1.2mph /  1.9km/h 2mph /  3.2km/h 77% 0.00in /  0mm 0 W/m2
00:19 41.2 °F /  5.1 °C 34.5 °F /  1.4 °C 30.14in /  1020.5hPa NNW 1.2mph /  1.9km/h 3mph /  4.8km/h 77% 0.00in /  0mm 0 W/m2
00:24 40.8 °F /  4.9 °C 34.2 °F /  1.2 °C 30.15in /  1020.9hPa NNW 1.5mph /  2.4km/h 3mph /  4.8km/h 77% 0.00in /  0mm 0 W/m2
00:29 40.6 °F /  4.8 °C 34.2 °F /  1.2 °C 30.15in /  1020.9hPa NNW 1.3mph /  2.1km/h 3mph /  4.8km/h 77.8% 0.00in /  0mm 0 W/m2
00:34 40.4 °F /  4.7 °C 34.1 °F /  1.2 °C 30.15in /  1020.9hPa NNW 0.6mph /  1km/h 2mph /  3.2km/h 78% 0.00in /  0mm 0 W/m2
00:39 40.1 °F /  4.5 °C 33.8 °F /  1 °C 30.15in /  1020.9hPa NNW 1.6mph /  2.6km/h 3mph /  4.8km/h 78% 0.00in /  0mm 0 W/m2
00:44 39.8 °F /  4.3 °C 33.5 °F /  0.8 °C 30.16in /  1021.2hPa NNW 0.5mph /  0.8km/h 3mph /  4.8km/h 78% 0.00in /  0mm 0 W/m2
00:49 39.7 °F /  4.3 °C 33.7 °F /  0.9 °C 30.16in /  1021.2hPa NNW 1.6mph /  2.6km/h 3mph /  4.8km/h 78.8% 0.00in /  0mm 0 W/m2
00:54 39.7 °F /  4.3 °C 33.8 °F /  1 °C 30.16in /  1021.2hPa WNW 1.7mph /  2.7km/h 6mph /  9.7km/h 79% 0.00in /  0mm 0 W/m2
00:59 39.9 °F /  4.4 °C 34 °F /  1.1 °C 30.16in /  1021.2hPa WNW 1.5mph /  2.4km/h 3mph /  4.8km/h 79% 0.00in /  0mm 0 W/m2
01:04 39.6 °F /  4.2 °C 33.7 °F /  0.9 °C 30.16in /  1021.2hPa WNW 1.3mph /  2.1km/h 3mph /  4.8km/h 79% 0.00in /  0mm 0 W/m2
01:09 39.4 °F /  4.1 °C 33.4 °F /  0.8 °C 30.16in /  1021.2hPa WNW 1.4mph /  2.3km/h 3mph /  4.8km/h 79% 0.00in /  0mm 0 W/m2
01:14 39 °F /  3.9 °C 33.1 °F /  0.6 °C 30.16in /  1021.2hPa WNW 1.6mph /  2.6km/h 3mph /  4.8km/h 79% 0.00in /  0mm 0 W/m2
01:19 38.9 °F /  3.8 °C 33.2 °F /  0.7 °C 30.16in /  1021.2hPa WNW 1.4mph /  2.3km/h 4mph /  6.4km/h 79.6% 0.00in /  0mm 0 W/m2
01:24 38.7 °F /  3.7 °C 32.9 °F /  0.5 °C 30.16in /  1021.2hPa WNW 1.8mph /  2.9km/h 4mph /  6.4km/h 79.4% 0.00in /  0mm 0 W/m2
01:29 38.7 °F /  3.7 °C 33.2 °F /  0.7 °C 30.16in /  1021.2hPa WNW 1.3mph /  2.1km/h 4mph /  6.4km/h 80% 0.00in /  0mm 0 W/m2
01:34 38.7 °F /  3.7 °C 33.1 °F /  0.6 °C 30.17in /  1021.6hPa WNW 1.3mph /  2.1km/h 3mph /  4.8km/h 80% 0.00in /  0mm 0 W/m2
01:39 38.5 °F /  3.6 °C 32.9 °F /  0.5 °C 30.17in /  1021.6hPa WNW 0.5mph /  0.8km/h 3mph /  4.8km/h 80% 0.00in /  0mm 0 W/m2
01:44 38.5 °F /  3.6 °C 32.9 °F /  0.5 °C 30.17in /  1021.6hPa WNW 1.3mph /  2.1km/h 3mph /  4.8km/h 80% 0.00in /  0mm 0 W/m2
01:49 38.3 °F /  3.5 °C 32.7 °F /  0.4 °C 30.17in /  1021.6hPa WNW 1.2mph /  1.9km/h 3mph /  4.8km/h 80% 0.00in /  0mm 0 W/m2
01:54 38.3 °F /  3.5 °C 32.7 °F /  0.4 °C 30.17in /  1021.6hPa WNW 1.7mph /  2.7km/h 3mph /  4.8km/h 80% 0.00in /  0mm 0 W/m2
01:59 38.7 °F /  3.7 °C 33.1 °F /  0.6 °C 30.18in /  1021.9hPa NNW 2mph /  3.2km/h 5mph /  8km/h 80% 0.00in /  0mm 0 W/m2
02:03 38.7 °F /  3.7 °C 33.2 °F /  0.7 °C 30.18in /  1021.9hPa NNW 1.2mph /  1.9km/h 3mph /  4.8km/h 80.5% 0.00in /  0mm 0 W/m2
02:09 38.7 °F /  3.7 °C 33.3 °F /  0.7 °C 30.18in /  1021.9hPa NNW 0.4mph /  0.6km/h 3mph /  4.8km/h 81% 0.00in /  0mm 0 W/m2
02:14 38.5 °F /  3.6 °C 33.1 °F /  0.6 °C 30.18in /  1021.9hPa NNW 1.2mph /  1.9km/h 3mph /  4.8km/h 81% 0.00in /  0mm 0 W/m2
02:19 38.5 °F /  3.6 °C 33.1 °F /  0.6 °C 30.18in /  1021.9hPa NNW 1.9mph /  3.1km/h 3mph /  4.8km/h 81% 0.00in /  0mm 0 W/m2
02:24 38.7 °F /  3.7 °C 33.3 °F /  0.7 °C 30.18in /  1021.9hPa NW 2.3mph /  3.7km/h 5mph /  8km/h 81% 0.00in /  0mm 0 W/m2
02:29 38.6 °F /  3.7 °C 33.2 °F /  0.7 °C 30.18in /  1021.9hPa WNW 2.4mph /  3.9km/h 4mph /  6.4km/h 81% 0.00in /  0mm 0 W/m2
02:34 38.5 °F /  3.6 °C 33.1 °F /  0.6 °C 30.18in /  1021.9hPa WNW 2.1mph /  3.4km/h 4mph /  6.4km/h 81% 0.00in /  0mm 0 W/m2
02:39 38.7 °F /  3.7 °C 33.3 °F /  0.7 °C 30.18in /  1021.9hPa WNW 2mph /  3.2km/h 4mph /  6.4km/h 81% 0.00in /  0mm 0 W/m2
02:44 38.5 °F /  3.6 °C 33.1 °F /  0.6 °C 30.18in /  1021.9hPa WNW 2.1mph /  3.4km/h 4mph /  6.4km/h 81% 0.00in /  0mm 0 W/m2
02:49 38.3 °F /  3.5 °C 33.3 °F /  0.7 °C 30.18in /  1021.9hPa WNW 3.1mph /  5km/h 5mph /  8km/h 81.8% 0.00in /  0mm 0 W/m2
02:54 38.2 °F /  3.4 °C 33.2 °F /  0.7 °C 30.18in /  1021.9hPa NW 2.1mph /  3.4km/h 4mph /  6.4km/h 82% 0.00in /  0mm 0 W/m2
02:59 38.1 °F /  3.4 °C 33.1 °F /  0.6 °C 30.18in /  1021.9hPa NW 2.4mph /  3.9km/h 5mph /  8km/h 82% 0.00in /  0mm 0 W/m2
03:04 38.1 °F /  3.4 °C 33.1 °F /  0.6 °C 30.19in /  1022.2hPa NW 1.7mph /  2.7km/h 4mph /  6.4km/h 82% 0.00in /  0mm 0 W/m2
03:09 37.9 °F /  3.3 °C 32.9 °F /  0.5 °C 30.19in /  1022.2hPa NW 2.6mph /  4.2km/h 5mph /  8km/h 82% 0.00in /  0mm 0 W/m2
03:14 37.9 °F /  3.3 °C 32.9 °F /  0.5 °C 30.19in /  1022.2hPa WNW 1.5mph /  2.4km/h 5mph /  8km/h 82% 0.00in /  0mm 0 W/m2
03:19 37.8 °F /  3.2 °C 32.7 °F /  0.4 °C 30.19in /  1022.2hPa WNW 0.9mph /  1.4km/h 4mph /  6.4km/h 82% 0.00in /  0mm 0 W/m2
03:24 37.8 °F /  3.2 °C 32.7 °F /  0.4 °C 30.19in /  1022.2hPa NW 2.3mph /  3.7km/h 5mph /  8km/h 82% 0.00in /  0mm 0 W/m2
03:29 37.9 °F /  3.3 °C 33.1 °F /  0.6 °C 30.20in /  1022.6hPa NW 2.1mph /  3.4km/h 4mph /  6.4km/h 82.4% 0.00in /  0mm 0 W/m2
03:34 37.9 °F /  3.3 °C 33.3 °F /  0.7 °C 30.20in /  1022.6hPa NW 1.7mph /  2.7km/h 5mph /  8km/h 83% 0.00in /  0mm 0 W/m2
03:39 37.9 °F /  3.3 °C 33.1 °F /  0.6 °C 30.20in /  1022.6hPa NW 2.7mph /  4.3km/h 5mph /  8km/h 82.6% 0.00in /  0mm 0 W/m2
03:44 37.9 °F /  3.3 °C 32.8 °F /  0.4 °C 30.20in /  1022.6hPa NW 2.5mph /  4km/h 5mph /  8km/h 82% 0.00in /  0mm 0 W/m2
03:49 37.8 °F /  3.2 °C 32.9 °F /  0.5 °C 30.20in /  1022.6hPa NW 2.8mph /  4.5km/h 6mph /  9.7km/h 82.2% 0.00in /  0mm 0 W/m2
03:54 37.9 °F /  3.3 °C 33.3 °F /  0.7 °C 30.20in /  1022.6hPa NW 2.2mph /  3.5km/h 5mph /  8km/h 83% 0.00in /  0mm 0 W/m2
03:59 37.9 °F /  3.3 °C 33.2 °F /  0.7 °C 30.20in /  1022.6hPa NW 2.9mph /  4.7km/h 5mph /  8km/h 83% 0.00in /  0mm 0 W/m2
04:04 37.6 °F /  3.1 °C 32.9 °F /  0.5 °C 30.21in /  1022.9hPa NW 2.5mph /  4km/h 5mph /  8km/h 83% 0.00in /  0mm 0 W/m2
04:09 37.4 °F /  3 °C 32.7 °F /  0.4 °C 30.21in /  1022.9hPa NW 2mph /  3.2km/h 5mph /  8km/h 83% 0.00in /  0mm 0 W/m2
04:14 37.4 °F /  3 °C 32.7 °F /  0.4 °C 30.21in /  1022.9hPa NW 2.2mph /  3.5km/h 5mph /  8km/h 83% 0.00in /  0mm 0 W/m2
04:19 37.2 °F /  2.9 °C 32.5 °F /  0.3 °C 30.21in /  1022.9hPa NW 1.3mph /  2.1km/h 5mph /  8km/h 83% 0.00in /  0mm 0 W/m2
04:24 37 °F /  2.8 °C 32.4 °F /  0.2 °C 30.21in /  1022.9hPa NW 0.4mph /  0.6km/h 3mph /  4.8km/h 83% 0.00in /  0mm 0 W/m2
04:29 37 °F /  2.8 °C 32.4 °F /  0.2 °C 30.21in /  1022.9hPa NW 2.8mph /  4.5km/h 8mph /  12.9km/h 83% 0.00in /  0mm 0 W/m2
04:34 37 °F /  2.8 °C 32.4 °F /  0.2 °C 30.21in /  1022.9hPa NW 1.4mph /  2.3km/h 5mph /  8km/h 83% 0.00in /  0mm 0 W/m2
04:39 37 °F /  2.8 °C 32.4 °F /  0.2 °C 30.22in /  1023.2hPa NW 0.5mph /  0.8km/h 3mph /  4.8km/h 83% 0.00in /  0mm 0 W/m2
04:44 37 °F /  2.8 °C 32.5 °F /  0.3 °C 30.22in /  1023.2hPa NNW 1.3mph /  2.1km/h 6mph /  9.7km/h 83.2% 0.00in /  0mm 0 W/m2
04:49 37 °F /  2.8 °C 32.7 °F /  0.4 °C 30.22in /  1023.2hPa North 1.2mph /  1.9km/h 6mph /  9.7km/h 84% 0.00in /  0mm 0 W/m2
04:54 37.1 °F /  2.8 °C 32.8 °F /  0.4 °C 30.21in /  1022.9hPa NW 0.9mph /  1.4km/h 4mph /  6.4km/h 84% 0.00in /  0mm 0 W/m2
04:59 37.1 °F /  2.8 °C 32.8 °F /  0.4 °C 30.22in /  1023.2hPa NW 0.9mph /  1.4km/h 3mph /  4.8km/h 84% 0.00in /  0mm 0 W/m2
05:04 37 °F /  2.8 °C 32.6 °F /  0.3 °C 30.22in /  1023.2hPa NNW 1mph /  1.6km/h 3mph /  4.8km/h 84% 0.00in /  0mm 0 W/m2
05:09 36.7 °F /  2.6 °C 32.3 °F /  0.2 °C 30.22in /  1023.2hPa NNW 1.2mph /  1.9km/h 4mph /  6.4km/h 84% 0.00in /  0mm 0 W/m2
05:14 36.4 °F /  2.4 °C 32.1 °F /  0.1 °C 30.22in /  1023.2hPa NNW 1.1mph /  1.8km/h 3mph /  4.8km/h 84% 0.00in /  0mm 0 W/m2
05:19 36.2 °F /  2.3 °C 31.9 °F /  -0.1 °C 30.22in /  1023.2hPa NNW 0.6mph /  1km/h 2mph /  3.2km/h 84% 0.00in /  0mm 0 W/m2
05:24 36 °F /  2.2 °C 31.6 °F /  -0.2 °C 30.22in /  1023.2hPa NNW 0.2mph /  0.3km/h 2mph /  3.2km/h 84% 0.00in /  0mm 0 W/m2
05:29 36.2 °F /  2.3 °C 31.8 °F /  -0.1 °C 30.22in /  1023.2hPa NNW 1.8mph /  2.9km/h 5mph /  8km/h 84% 0.00in /  0mm 0 W/m2
05:34 36.5 °F /  2.5 °C 32.2 °F /  0.1 °C 30.22in /  1023.2hPa NNW 0.4mph /  0.6km/h 3mph /  4.8km/h 84% 0.00in /  0mm 0 W/m2
05:39 36.5 °F /  2.5 °C 32.2 °F /  0.1 °C 30.22in /  1023.2hPa NNW 0.2mph /  0.3km/h 3mph /  4.8km/h 84% 0.00in /  0mm 0 W/m2
05:44 36.6 °F /  2.6 °C 32.5 °F /  0.3 °C 30.22in /  1023.2hPa NNW 0.9mph /  1.4km/h 3mph /  4.8km/h 85% 0.00in /  0mm 0 W/m2
05:49 36.6 °F /  2.6 °C 32.5 °F /  0.3 °C 30.23in /  1023.6hPa NNW 0.5mph /  0.8km/h 2mph /  3.2km/h 85% 0.00in /  0mm 0 W/m2
05:54 36.3 °F /  2.4 °C 32.2 °F /  0.1 °C 30.23in /  1023.6hPa NNW 0.2mph /  0.3km/h 2mph /  3.2km/h 85% 0.00in /  0mm 0 W/m2
05:59 36.1 °F /  2.3 °C 32 °F /  0 °C 30.23in /  1023.6hPa NNW 0.2mph /  0.3km/h 1mph /  1.6km/h 85% 0.00in /  0mm 0 W/m2
06:04 36 °F /  2.2 °C 31.8 °F /  -0.1 °C 30.24in /  1023.9hPa NNW 1mph /  1.6km/h 3mph /  4.8km/h 85% 0.00in /  0mm 0 W/m2
06:09 36 °F /  2.2 °C 31.8 °F /  -0.1 °C 30.24in /  1023.9hPa West 0.8mph /  1.3km/h 4mph /  6.4km/h 85% 0.00in /  0mm 5 W/m2
06:14 35.8 °F /  2.1 °C 31.6 °F /  -0.2 °C 30.24in /  1023.9hPa West 3.2mph /  5.1km/h 5mph /  8km/h 85% 0.00in /  0mm 7 W/m2
06:19 35.4 °F /  1.9 °C 31.3 °F /  -0.4 °C 30.24in /  1023.9hPa West 2.7mph /  4.3km/h 4mph /  6.4km/h 85% 0.00in /  0mm 9 W/m2
06:24 35.4 °F /  1.9 °C 31.3 °F /  -0.4 °C 30.24in /  1023.9hPa West 2.2mph /  3.5km/h 3mph /  4.8km/h 85% 0.00in /  0mm 11 W/m2
06:29 35.3 °F /  1.8 °C 31.6 °F /  -0.2 °C 30.24in /  1023.9hPa Calm   2mph /  3.2km/h 86% 0.00in /  0mm 14 W/m2
06:34 35.2 °F /  1.8 °C 31.5 °F /  -0.3 °C 30.25in /  1024.3hPa West 0.4mph /  0.6km/h 2mph /  3.2km/h 86% 0.00in /  0mm 16 W/m2
06:39 35.1 °F /  1.7 °C 31.3 °F /  -0.4 °C 30.25in /  1024.3hPa Calm     86% 0.00in /  0mm 18 W/m2
06:44 34.9 °F /  1.6 °C 31.1 °F /  -0.5 °C 30.25in /  1024.3hPa Calm     86% 0.00in /  0mm 21 W/m2
06:49 34.9 °F /  1.6 °C 31.1 °F /  -0.5 °C 30.25in /  1024.3hPa Calm     86% 0.00in /  0mm 26 W/m2
06:54 34.7 °F /  1.5 °C 30.9 °F /  -0.6 °C 30.26in /  1024.6hPa Calm     86% 0.00in /  0mm 30 W/m2
06:58 34.7 °F /  1.5 °C 30.9 °F /  -0.6 °C 30.26in /  1024.6hPa Calm     86% 0.00in /  0mm 30 W/m2
07:04 34.7 °F /  1.5 °C 30.9 °F /  -0.6 °C 30.26in /  1024.6hPa Calm     86% 0.00in /  0mm 30 W/m2
07:09 35.1 °F /  1.7 °C 31.3 °F /  -0.4 °C 30.26in /  1024.6hPa Calm     86% 0.00in /  0mm 32 W/m2
07:14 35.6 °F /  2 °C 32.2 °F /  0.1 °C 30.26in /  1024.6hPa Calm     87% 0.00in /  0mm 39 W/m2
07:19 35.8 °F /  2.1 °C 32.4 °F /  0.2 °C 30.27in /  1024.9hPa West 1.6mph /  2.6km/h 3mph /  4.8km/h 87% 0.00in /  0mm 46 W/m2
07:24 36 °F /  2.2 °C 32.5 °F /  0.3 °C 30.27in /  1024.9hPa West 2mph /  3.2km/h 3mph /  4.8km/h 87% 0.00in /  0mm 56 W/m2
07:29 36.1 °F /  2.3 °C 32.7 °F /  0.4 °C 30.27in /  1024.9hPa West 1.4mph /  2.3km/h 3mph /  4.8km/h 87% 0.00in /  0mm 70 W/m2
07:34 36.4 °F /  2.4 °C 33 °F /  0.6 °C 30.27in /  1024.9hPa West 1.2mph /  1.9km/h 3mph /  4.8km/h 87% 0.00in /  0mm 90 W/m2
07:39 36.7 °F /  2.6 °C 33.3 °F /  0.7 °C 30.27in /  1024.9hPa West 1.3mph /  2.1km/h 3mph /  4.8km/h 87% 0.00in /  0mm 107 W/m2
07:44 36.9 °F /  2.7 °C 33.4 °F /  0.8 °C 30.27in /  1024.9hPa West 1.6mph /  2.6km/h 3mph /  4.8km/h 87% 0.00in /  0mm 121 W/m2
07:49 37.1 °F /  2.8 °C 33.7 °F /  0.9 °C 30.27in /  1024.9hPa West 0.7mph /  1.1km/h 2mph /  3.2km/h 87% 0.00in /  0mm 134 W/m2
07:54 37.4 °F /  3 °C 33.8 °F /  1 °C 30.27in /  1024.9hPa West 0.2mph /  0.3km/h 2mph /  3.2km/h 87% 0.00in /  0mm 132 W/m2
07:59 37.8 °F /  3.2 °C 34.2 °F /  1.2 °C 30.27in /  1024.9hPa West 0.9mph /  1.4km/h 2mph /  3.2km/h 87% 0.00in /  0mm 169 W/m2
08:04 38 °F /  3.3 °C 34.4 °F /  1.3 °C 30.28in /  1025.3hPa West 1.6mph /  2.6km/h 3mph /  4.8km/h 87% 0.00in /  0mm 190 W/m2
08:09 38.3 °F /  3.5 °C 34.6 °F /  1.4 °C 30.28in /  1025.3hPa West 1.7mph /  2.7km/h 3mph /  4.8km/h 86.8% 0.00in /  0mm 206 W/m2
08:14 38.7 °F /  3.7 °C 35 °F /  1.7 °C 30.28in /  1025.3hPa West 1.2mph /  1.9km/h 2mph /  3.2km/h 86.6% 0.00in /  0mm 202 W/m2
08:19 38.8 °F /  3.8 °C 35.1 °F /  1.7 °C 30.28in /  1025.3hPa West 2.8mph /  4.5km/h 4mph /  6.4km/h 86% 0.00in /  0mm 251 W/m2
08:24 39 °F /  3.9 °C 35.2 °F /  1.8 °C 30.28in /  1025.3hPa West 1.7mph /  2.7km/h 4mph /  6.4km/h 86% 0.00in /  0mm 250 W/m2
08:29 39.2 °F /  4 °C 35.4 °F /  1.9 °C 30.28in /  1025.3hPa West 1.5mph /  2.4km/h 4mph /  6.4km/h 86% 0.00in /  0mm 269 W/m2
08:34 39.8 °F /  4.3 °C 35.9 °F /  2.2 °C 30.28in /  1025.3hPa West 2mph /  3.2km/h 5mph /  8km/h 85.8% 0.00in /  0mm 283 W/m2
08:39 40.3 °F /  4.6 °C 36.1 °F /  2.3 °C 30.28in /  1025.3hPa WSW 2.2mph /  3.5km/h 4mph /  6.4km/h 85% 0.00in /  0mm 297 W/m2
08:44 40.6 °F /  4.8 °C 36.4 °F /  2.4 °C 30.28in /  1025.3hPa WSW 2.4mph /  3.9km/h 6mph /  9.7km/h 85% 0.00in /  0mm 318 W/m2
08:49 41.2 °F /  5.1 °C 36.8 °F /  2.7 °C 30.28in /  1025.3hPa SW 2mph /  3.2km/h 6mph /  9.7km/h 84.2% 0.00in /  0mm 334 W/m2
08:54 41.6 °F /  5.3 °C 37.1 °F /  2.8 °C 30.29in /  1025.6hPa WSW 2.9mph /  4.7km/h 7mph /  11.3km/h 84% 0.00in /  0mm 345 W/m2
08:59 41.8 °F /  5.4 °C 37 °F /  2.8 °C 30.29in /  1025.6hPa WSW 3.2mph /  5.1km/h 7mph /  11.3km/h 83.2% 0.00in /  0mm 374 W/m2
09:04 42.2 °F /  5.7 °C 37.3 °F /  2.9 °C 30.29in /  1025.6hPa WSW 5.2mph /  8.4km/h 7mph /  11.3km/h 83% 0.00in /  0mm 397 W/m2
09:09 42.2 °F /  5.7 °C 37.1 °F /  2.8 °C 30.29in /  1025.6hPa WSW 4.3mph /  6.9km/h 7mph /  11.3km/h 82% 0.00in /  0mm 408 W/m2
09:14 42.5 °F /  5.8 °C 37.4 °F /  3 °C 30.29in /  1025.6hPa WSW 4.8mph /  7.7km/h 8mph /  12.9km/h 81.8% 0.00in /  0mm 420 W/m2
09:19 42.4 °F /  5.8 °C 37 °F /  2.8 °C 30.29in /  1025.6hPa SW 4.9mph /  7.9km/h 8mph /  12.9km/h 81% 0.00in /  0mm 432 W/m2
09:24 42.7 °F /  5.9 °C 37.2 °F /  2.9 °C 30.29in /  1025.6hPa WSW 4.5mph /  7.2km/h 7mph /  11.3km/h 80.6% 0.00in /  0mm 452 W/m2
09:29 43.1 °F /  6.2 °C 37.3 °F /  2.9 °C 30.29in /  1025.6hPa West 1.7mph /  2.7km/h 6mph /  9.7km/h 80% 0.00in /  0mm 462 W/m2
09:34 43.6 °F /  6.4 °C 37.8 °F /  3.2 °C 30.29in /  1025.6hPa WSW 3.5mph /  5.6km/h 7mph /  11.3km/h 80% 0.00in /  0mm 475 W/m2
09:39 44 °F /  6.7 °C 37.9 °F /  3.3 °C 30.29in /  1025.6hPa WSW 2.9mph /  4.7km/h 6mph /  9.7km/h 79.2% 0.00in /  0mm 483 W/m2
09:44 44.2 °F /  6.8 °C 38.1 °F /  3.4 °C 30.29in /  1025.6hPa WSW 3.2mph /  5.1km/h 5mph /  8km/h 79% 0.00in /  0mm 503 W/m2
09:49 44.4 °F /  6.9 °C 37.9 °F /  3.3 °C 30.29in /  1025.6hPa WSW 1.6mph /  2.6km/h 5mph /  8km/h 78% 0.00in /  0mm 512 W/m2
09:54 44.8 °F /  7.1 °C 38 °F /  3.3 °C 30.29in /  1025.6hPa WSW 2.4mph /  3.9km/h 5mph /  8km/h 77.2% 0.00in /  0mm 538 W/m2
09:59 44.9 °F /  7.2 °C 38 °F /  3.3 °C 30.29in /  1025.6hPa West 3.1mph /  5km/h 6mph /  9.7km/h 77% 0.00in /  0mm 564 W/m2
10:04 45 °F /  7.2 °C 38.1 °F /  3.4 °C 30.29in /  1025.6hPa West 1.5mph /  2.4km/h 4mph /  6.4km/h 77% 0.00in /  0mm 582 W/m2
10:09 45.8 °F /  7.7 °C 38.6 °F /  3.7 °C 30.29in /  1025.6hPa WSW 1.7mph /  2.7km/h 5mph /  8km/h 76% 0.00in /  0mm 633 W/m2
10:14 46 °F /  7.8 °C 38.4 °F /  3.6 °C 30.29in /  1025.6hPa SW 2.3mph /  3.7km/h 5mph /  8km/h 75% 0.00in /  0mm 647 W/m2
10:19 46.2 °F /  7.9 °C 38.5 °F /  3.6 °C 30.29in /  1025.6hPa West 3.1mph /  5km/h 5mph /  8km/h 74.2% 0.00in /  0mm 642 W/m2
10:24 46.1 °F /  7.8 °C 38.3 °F /  3.5 °C 30.29in /  1025.6hPa NNW 4.2mph /  6.8km/h 5mph /  8km/h 73.8% 0.00in /  0mm 225 W/m2
10:29 46.4 °F /  8 °C 38.3 °F /  3.5 °C 30.29in /  1025.6hPa NNW 1.3mph /  2.1km/h 4mph /  6.4km/h 73% 0.00in /  0mm 408 W/m2
10:34 47.1 °F /  8.4 °C 38.7 °F /  3.7 °C 30.29in /  1025.6hPa North 1.3mph /  2.1km/h 4mph /  6.4km/h 72.6% 0.00in /  0mm 408 W/m2
10:39 46.8 °F /  8.2 °C 38.3 °F /  3.5 °C 30.29in /  1025.6hPa NW 0.8mph /  1.3km/h 4mph /  6.4km/h 72% 0.00in /  0mm 717 W/m2
10:44 46.8 °F /  8.2 °C 38.3 °F /  3.5 °C 30.29in /  1025.6hPa WNW 2.9mph /  4.7km/h 7mph /  11.3km/h 72% 0.00in /  0mm 703 W/m2
10:49 46.9 °F /  8.3 °C 38.1 °F /  3.4 °C 30.29in /  1025.6hPa West 4.7mph /  7.6km/h 7mph /  11.3km/h 71.4% 0.00in /  0mm 714 W/m2
10:54 46.6 °F /  8.1 °C 37.8 °F /  3.2 °C 30.29in /  1025.6hPa West 3.6mph /  5.8km/h 8mph /  12.9km/h 71% 0.00in /  0mm 227 W/m2
10:59 46.4 °F /  8 °C 37.6 °F /  3.1 °C 30.29in /  1025.6hPa West 2.7mph /  4.3km/h 6mph /  9.7km/h 71% 0.00in /  0mm 383 W/m2
11:04 46.4 °F /  8 °C 37.4 °F /  3 °C 30.29in /  1025.6hPa West 2.1mph /  3.4km/h 3mph /  4.8km/h 70.6% 0.00in /  0mm 118 W/m2
11:09 46.8 °F /  8.2 °C 37.6 °F /  3.1 °C 30.29in /  1025.6hPa South 2.8mph /  4.5km/h 6mph /  9.7km/h 70% 0.00in /  0mm 686 W/m2
11:14 47.7 °F /  8.7 °C 38.2 °F /  3.4 °C 30.29in /  1025.6hPa West 3mph /  4.8km/h 5mph /  8km/h 69.6% 0.00in /  0mm 691 W/m2
11:19 48.6 °F /  9.2 °C 38.7 °F /  3.7 °C 30.29in /  1025.6hPa West 2.5mph /  4km/h 6mph /  9.7km/h 68.6% 0.00in /  0mm 705 W/m2
11:24 48.5 °F /  9.2 °C 38.1 °F /  3.4 °C 30.29in /  1025.6hPa SW 1.7mph /  2.7km/h 6mph /  9.7km/h 67.2% 0.00in /  0mm 717 W/m2
11:29 49.1 °F /  9.5 °C 38.2 °F /  3.4 °C 30.29in /  1025.6hPa WSW 3.4mph /  5.5km/h 5mph /  8km/h 65.8% 0.00in /  0mm 765 W/m2
11:34 49.1 °F /  9.5 °C 37.8 °F /  3.2 °C 30.29in /  1025.6hPa South 3.2mph /  5.1km/h 6mph /  9.7km/h 65% 0.00in /  0mm 773 W/m2
11:39 48.7 °F /  9.3 °C 37.8 °F /  3.2 °C 30.29in /  1025.6hPa WSW 4.6mph /  7.4km/h 8mph /  12.9km/h 65.8% 0.00in /  0mm 782 W/m2
11:44 48.9 °F /  9.4 °C 37.9 °F /  3.3 °C 30.29in /  1025.6hPa WSW 3.8mph /  6.1km/h 8mph /  12.9km/h 65.6% 0.00in /  0mm 737 W/m2
11:49 49.7 °F /  9.8 °C 38.3 °F /  3.5 °C 30.28in /  1025.3hPa WSW 3.2mph /  5.1km/h 7mph /  11.3km/h 64.8% 0.00in /  0mm 733 W/m2
11:54 50.3 °F /  10.2 °C 38.9 °F /  3.8 °C 30.28in /  1025.3hPa WSW 2.9mph /  4.7km/h 7mph /  11.3km/h 64.8% 0.00in /  0mm 735 W/m2
11:59 50.4 °F /  10.2 °C 38.7 °F /  3.7 °C 30.28in /  1025.3hPa West 2.9mph /  4.7km/h 8mph /  12.9km/h 64% 0.00in /  0mm 742 W/m2
12:04 50.2 °F /  10.1 °C 38.5 °F /  3.6 °C 30.28in /  1025.3hPa West 2.9mph /  4.7km/h 8mph /  12.9km/h 64% 0.00in /  0mm 744 W/m2
12:09 50.4 °F /  10.2 °C 38.5 °F /  3.6 °C 30.28in /  1025.3hPa WSW 1.6mph /  2.6km/h 6mph /  9.7km/h 63.6% 0.00in /  0mm 754 W/m2
12:14 50.7 °F /  10.4 °C 38.6 °F /  3.7 °C 30.28in /  1025.3hPa WNW 2.9mph /  4.7km/h 7mph /  11.3km/h 63% 0.00in /  0mm 761 W/m2
12:19 51.4 °F /  10.8 °C 39 °F /  3.9 °C 30.28in /  1025.3hPa West 3.6mph /  5.8km/h 9mph /  14.5km/h 62.8% 0.00in /  0mm 809 W/m2
12:24 51.2 °F /  10.7 °C 38.8 °F /  3.8 °C 30.28in /  1025.3hPa WSW 4.8mph /  7.7km/h 8mph /  12.9km/h 62.8% 0.00in /  0mm 819 W/m2
12:29 51.4 °F /  10.8 °C 38.6 °F /  3.7 °C 30.27in /  1024.9hPa SW 2.4mph /  3.9km/h 7mph /  11.3km/h 61.4% 0.00in /  0mm 854 W/m2
12:34 51.8 °F /  11 °C 38.3 °F /  3.5 °C 30.27in /  1024.9hPa SW 2.7mph /  4.3km/h 9mph /  14.5km/h 60% 0.00in /  0mm 719 W/m2
12:39 51.3 °F /  10.7 °C 38.2 °F /  3.4 °C 30.27in /  1024.9hPa South 2.1mph /  3.4km/h 9mph /  14.5km/h 60.8% 0.00in /  0mm 853 W/m2
12:44 52.5 °F /  11.4 °C 39.9 °F /  4.4 °C 30.27in /  1024.9hPa SW 1.3mph /  2.1km/h 4mph /  6.4km/h 62% 0.00in /  0mm 925 W/m2
12:49 53.7 °F /  12.1 °C 39.9 °F /  4.4 °C 30.27in /  1024.9hPa SW 3.5mph /  5.6km/h 9mph /  14.5km/h 59.5% 0.00in /  0mm 691 W/m2
12:54 53.2 °F /  11.8 °C 39.7 °F /  4.3 °C 30.27in /  1024.9hPa West 3.1mph /  5km/h 9mph /  14.5km/h 60% 0.00in /  0mm 798 W/m2
12:59 52.9 °F /  11.6 °C 39.3 °F /  4.1 °C 30.27in /  1024.9hPa SW 5.2mph /  8.4km/h 9mph /  14.5km/h 59.8% 0.00in /  0mm 838 W/m2
13:04 53.1 °F /  11.7 °C 39.3 °F /  4.1 °C 30.27in /  1024.9hPa SW 5mph /  8km/h 9mph /  14.5km/h 59.2% 0.00in /  0mm 846 W/m2
13:09 52.8 °F /  11.6 °C 39.3 °F /  4.1 °C 30.27in /  1024.9hPa SW 6.6mph /  10.6km/h 14mph /  22.5km/h 60% 0.00in /  0mm 846 W/m2
13:14 52.3 °F /  11.3 °C 39.6 °F /  4.2 °C 30.27in /  1024.9hPa WSW 5.4mph /  8.7km/h 13mph /  20.9km/h 61.6% 0.00in /  0mm 956 W/m2
13:19 53.1 °F /  11.7 °C 39.5 °F /  4.2 °C 30.27in /  1024.9hPa West 7.2mph /  11.6km/h 15mph /  24.1km/h 59.6% 0.00in /  0mm 956 W/m2
13:24 53 °F /  11.7 °C 38.3 °F /  3.5 °C 30.27in /  1024.9hPa WNW 7.4mph /  11.9km/h 12mph /  19.3km/h 57.2% 0.00in /  0mm 926 W/m2
13:29 52.9 °F /  11.6 °C 38.1 °F /  3.4 °C 30.26in /  1024.6hPa SW 7mph /  11.3km/h 13mph /  20.9km/h 57% 0.00in /  0mm 1016 W/m2
13:34 53.2 °F /  11.8 °C 38.8 °F /  3.8 °C 30.26in /  1024.6hPa WNW 5.2mph /  8.4km/h 12mph /  19.3km/h 57.8% 0.00in /  0mm 668 W/m2
13:39 53 °F /  11.7 °C 39.1 °F /  3.9 °C 30.26in /  1024.6hPa West 6.2mph /  10km/h 12mph /  19.3km/h 59% 0.00in /  0mm 592 W/m2
13:44 53.2 °F /  11.8 °C 39 °F /  3.9 °C 30.26in /  1024.6hPa West 6.5mph /  10.5km/h 13mph /  20.9km/h 58.4% 0.00in /  0mm 534 W/m2
13:49 52.9 °F /  11.6 °C 39.3 °F /  4.1 °C 30.25in /  1024.3hPa WSW 4.9mph /  7.9km/h 11mph /  17.7km/h 59.6% 0.00in /  0mm 517 W/m2
13:54 52.9 °F /  11.6 °C 39.5 °F /  4.2 °C 30.25in /  1024.3hPa WSW 5.6mph /  9km/h 12mph /  19.3km/h 60.4% 0.00in /  0mm 468 W/m2
13:59 52.7 °F /  11.5 °C 39 °F /  3.9 °C 30.25in /  1024.3hPa West 4.7mph /  7.6km/h 11mph /  17.7km/h 59.4% 0.00in /  0mm 951 W/m2
14:04 53.3 °F /  11.8 °C 39.3 °F /  4.1 °C 30.25in /  1024.3hPa West 5.9mph /  9.5km/h 12mph /  19.3km/h 59% 0.00in /  0mm 837 W/m2
14:09 53.8 °F /  12.1 °C 39 °F /  3.9 °C 30.25in /  1024.3hPa West 5.5mph /  8.9km/h 12mph /  19.3km/h 57.2% 0.00in /  0mm 865 W/m2
14:14 54.2 °F /  12.3 °C 38.4 °F /  3.6 °C 30.25in /  1024.3hPa West 8.8mph /  14.2km/h 13mph /  20.9km/h 55% 0.00in /  0mm 960 W/m2
14:19 53.9 °F /  12.2 °C 38.3 °F /  3.5 °C 30.25in /  1024.3hPa WNW 4.7mph /  7.6km/h 13mph /  20.9km/h 55.4% 0.00in /  0mm 707 W/m2
14:24 53.3 °F /  11.8 °C 38.3 °F /  3.5 °C 30.25in /  1024.3hPa WNW 6.8mph /  10.9km/h 15mph /  24.1km/h 56.6% 0.00in /  0mm 970 W/m2
14:29 53.3 °F /  11.8 °C 38.5 °F /  3.6 °C 30.25in /  1024.3hPa West 9.8mph /  15.8km/h 13mph /  20.9km/h 57% 0.00in /  0mm 689 W/m2
14:34 53.3 °F /  11.8 °C 38.6 °F /  3.7 °C 30.25in /  1024.3hPa WSW 6.8mph /  10.9km/h 13mph /  20.9km/h 57.2% 0.00in /  0mm 830 W/m2
14:39 53.8 °F /  12.1 °C 38.2 °F /  3.4 °C 30.25in /  1024.3hPa West 7.1mph /  11.4km/h 17mph /  27.4km/h 55.4% 0.00in /  0mm 555 W/m2
14:44 53.2 °F /  11.8 °C 35.6 °F /  2 °C 30.25in /  1024.3hPa West 8mph /  12.9km/h 16mph /  25.7km/h 51.2% 0.00in /  0mm 534 W/m2
14:49 53.1 °F /  11.7 °C 36.4 °F /  2.4 °C 30.25in /  1024.3hPa WSW 7.1mph /  11.4km/h 12mph /  19.3km/h 53% 0.00in /  0mm 555 W/m2
14:54 53.3 °F /  11.8 °C 36.5 °F /  2.5 °C 30.25in /  1024.3hPa WSW 8.4mph /  13.5km/h 14mph /  22.5km/h 52.8% 0.00in /  0mm 912 W/m2
14:59 53.2 °F /  11.8 °C 35.9 °F /  2.2 °C 30.25in /  1024.3hPa WSW 7.9mph /  12.7km/h 15mph /  24.1km/h 51.6% 0.00in /  0mm 613 W/m2
15:04 53.5 °F /  11.9 °C 36.3 °F /  2.4 °C 30.24in /  1023.9hPa WSW 6.3mph /  10.1km/h 13mph /  20.9km/h 52% 0.00in /  0mm 921 W/m2
15:09 54.2 °F /  12.3 °C 36.1 °F /  2.3 °C 30.24in /  1023.9hPa West 11.8mph /  19km/h 18mph /  29km/h 50.4% 0.00in /  0mm 446 W/m2
15:14 53.4 °F /  11.9 °C 34.7 °F /  1.5 °C 30.24in /  1023.9hPa WSW 8.8mph /  14.2km/h 12mph /  19.3km/h 49% 0.00in /  0mm 404 W/m2
15:19 53.1 °F /  11.7 °C 34.7 °F /  1.5 °C 30.24in /  1023.9hPa West 11.2mph /  18km/h 18mph /  29km/h 49.6% 0.00in /  0mm 675 W/m2
15:24 53.1 °F /  11.7 °C 35.5 °F /  1.9 °C 30.24in /  1023.9hPa WNW 11mph /  17.7km/h 18mph /  29km/h 51.2% 0.00in /  0mm 578 W/m2
15:29 52.9 °F /  11.6 °C 36.7 °F /  2.6 °C 30.24in /  1023.9hPa West 8.2mph /  13.2km/h 21mph /  33.8km/h 54% 0.00in /  0mm 603 W/m2
15:34 53.1 °F /  11.7 °C 37.8 °F /  3.2 °C 30.24in /  1023.9hPa WSW 9.6mph /  15.4km/h 21mph /  33.8km/h 56% 0.00in /  0mm 471 W/m2
15:39 53 °F /  11.7 °C 38.2 °F /  3.4 °C 30.23in /  1023.6hPa West 9.8mph /  15.8km/h 18mph /  29km/h 57% 0.00in /  0mm 582 W/m2
15:44 53.2 °F /  11.8 °C 38.5 °F /  3.6 °C 30.23in /  1023.6hPa WSW 8mph /  12.9km/h 18mph /  29km/h 57.2% 0.00in /  0mm 738 W/m2
15:49 53.5 °F /  11.9 °C 37.6 °F /  3.1 °C 30.23in /  1023.6hPa West 10.4mph /  16.7km/h 19mph /  30.6km/h 54.6% 0.00in /  0mm 738 W/m2
15:54 53.2 °F /  11.8 °C 34.2 °F /  1.2 °C 30.23in /  1023.6hPa West 13.2mph /  21.2km/h 18mph /  29km/h 48.4% 0.00in /  0mm 710 W/m2
15:59 53.3 °F /  11.8 °C 31.8 °F /  -0.1 °C 30.23in /  1023.6hPa West 9.4mph /  15.1km/h 17mph /  27.4km/h 43.8% 0.00in /  0mm 631 W/m2
16:04 53.2 °F /  11.8 °C 29.8 °F /  -1.2 °C 30.23in /  1023.6hPa West 8.4mph /  13.5km/h 17mph /  27.4km/h 40.4% 0.00in /  0mm 475 W/m2
16:09 52.8 °F /  11.6 °C 29.8 °F /  -1.2 °C 30.23in /  1023.6hPa West 8.4mph /  13.5km/h 17mph /  27.4km/h 41.2% 0.00in /  0mm 461 W/m2
16:14 52.4 °F /  11.3 °C 29.6 °F /  -1.3 °C 30.23in /  1023.6hPa West 10.6mph /  17.1km/h 17mph /  27.4km/h 41.4% 0.00in /  0mm 429 W/m2
16:19 52.3 °F /  11.3 °C 29.9 °F /  -1.2 °C 30.23in /  1023.6hPa West 9mph /  14.5km/h 15mph /  24.1km/h 42.2% 0.00in /  0mm 413 W/m2
16:24 52.5 °F /  11.4 °C 32 °F /  0 °C 30.23in /  1023.6hPa SW 8mph /  12.9km/h 14mph /  22.5km/h 45.4% 0.00in /  0mm 445 W/m2
16:29 52.4 °F /  11.3 °C 33.3 °F /  0.7 °C 30.23in /  1023.6hPa West 8.2mph /  13.2km/h 15mph /  24.1km/h 48% 0.00in /  0mm 320 W/m2
16:34 52.2 °F /  11.2 °C 34 °F /  1.1 °C 30.22in /  1023.2hPa WSW 6.3mph /  10.1km/h 12mph /  19.3km/h 49.6% 0.00in /  0mm 290 W/m2
16:39 52.5 °F /  11.4 °C 34.6 °F /  1.4 °C 30.22in /  1023.2hPa WSW 6.6mph /  10.6km/h 14mph /  22.5km/h 50.4% 0.00in /  0mm 323 W/m2
16:44 52.4 °F /  11.3 °C 34.7 °F /  1.5 °C 30.22in /  1023.2hPa WNW 10.5mph /  16.9km/h 21mph /  33.8km/h 50.8% 0.00in /  0mm 371 W/m2
16:49 52.2 °F /  11.2 °C 34.9 °F /  1.6 °C 30.22in /  1023.2hPa West 10.4mph /  16.7km/h 16mph /  25.7km/h 51.6% 0.00in /  0mm 243 W/m2
16:54 51.9 °F /  11.1 °C 36 °F /  2.2 °C 30.22in /  1023.2hPa West 8.2mph /  13.2km/h 19mph /  30.6km/h 54.6% 0.00in /  0mm 290 W/m2
16:59 51.7 °F /  10.9 °C 37 °F /  2.8 °C 30.22in /  1023.2hPa WSW 10.5mph /  16.9km/h 20mph /  32.2km/h 57% 0.00in /  0mm 253 W/m2
17:04 51.2 °F /  10.7 °C 36.9 °F /  2.7 °C 30.22in /  1023.2hPa West 7.8mph /  12.6km/h 20mph /  32.2km/h 58% 0.00in /  0mm 195 W/m2
17:09 50.7 °F /  10.4 °C 37.2 °F /  2.9 °C 30.22in /  1023.2hPa West 7.4mph /  11.9km/h 19mph /  30.6km/h 59.6% 0.00in /  0mm 171 W/m2
17:14 50.5 °F /  10.3 °C 37.4 °F /  3 °C 30.22in /  1023.2hPa West 9mph /  14.5km/h 15mph /  24.1km/h 60.6% 0.00in /  0mm 181 W/m2
17:18 50.5 °F /  10.3 °C 37.8 °F /  3.2 °C 30.22in /  1023.2hPa West 7.2mph /  11.6km/h 18mph /  29km/h 62% 0.00in /  0mm 195 W/m2
17:29 50.5 °F /  10.3 °C 38.2 °F /  3.4 °C 30.22in /  1023.2hPa West 10.6mph /  17.1km/h 16mph /  25.7km/h 62.5% 0.00in /  0mm 185 W/m2
17:34 50.4 °F /  10.2 °C 38 °F /  3.3 °C 30.22in /  1023.2hPa West 8.4mph /  13.5km/h 17mph /  27.4km/h 62.4% 0.00in /  0mm 176 W/m2
17:35 50.4 °F /  10.2 °C 38.3 °F /  3.5 °C 30.22in /  1023.2hPa West 13mph /  20.9km/h 13mph /  20.9km/h 63% 0.00in /  0mm 176 W/m2
17:49 49.9 °F /  9.9 °C 37.3 °F /  2.9 °C 30.22in /  1023.2hPa West 10.4mph /  16.7km/h 19mph /  30.6km/h 61.6% 0.00in /  0mm 142 W/m2
17:54 49.6 °F /  9.8 °C 36.9 °F /  2.7 °C 30.22in /  1023.2hPa West 9.2mph /  14.8km/h 19mph /  30.6km/h 61.4% 0.00in /  0mm 135 W/m2
17:59 49.6 °F /  9.8 °C 37.6 °F /  3.1 °C 30.22in /  1023.2hPa West 9.6mph /  15.4km/h 17mph /  27.4km/h 62.8% 0.00in /  0mm 142 W/m2
18:04 49.6 °F /  9.8 °C 37.6 °F /  3.1 °C 30.22in /  1023.2hPa West 9.6mph /  15.4km/h 16mph /  25.7km/h 63% 0.00in /  0mm 146 W/m2
18:09 49.6 °F /  9.8 °C 37.9 °F /  3.3 °C 30.22in /  1023.2hPa West 10mph /  16.1km/h 16mph /  25.7km/h 64% 0.00in /  0mm 146 W/m2
18:14 49.5 °F /  9.7 °C 38 °F /  3.3 °C 30.22in /  1023.2hPa West 7.4mph /  11.9km/h 16mph /  25.7km/h 64.8% 0.00in /  0mm 139 W/m2
18:19 49.5 °F /  9.7 °C 38.1 °F /  3.4 °C 30.22in /  1023.2hPa West 6mph /  9.7km/h 15mph /  24.1km/h 64.8% 0.00in /  0mm 153 W/m2
18:24 49.6 °F /  9.8 °C 37.9 °F /  3.3 °C 30.22in /  1023.2hPa WSW 8.8mph /  14.2km/h 16mph /  25.7km/h 64% 0.00in /  0mm 162 W/m2
18:29 49.5 °F /  9.7 °C 37.8 °F /  3.2 °C 30.21in /  1022.9hPa WNW 8.6mph /  13.8km/h 17mph /  27.4km/h 64% 0.00in /  0mm 162 W/m2
18:34 49.5 °F /  9.7 °C 38 °F /  3.3 °C 30.21in /  1022.9hPa West 7.2mph /  11.6km/h 14mph /  22.5km/h 64.6% 0.00in /  0mm 169 W/m2
18:39 49.5 °F /  9.7 °C 38.1 °F /  3.4 °C 30.21in /  1022.9hPa West 9.2mph /  14.8km/h 19mph /  30.6km/h 65% 0.00in /  0mm 156 W/m2
18:44 49.3 °F /  9.6 °C 38.4 °F /  3.6 °C 30.20in /  1022.6hPa WNW 9mph /  14.5km/h 19mph /  30.6km/h 65.8% 0.00in /  0mm 160 W/m2
18:49 49.3 °F /  9.6 °C 39 °F /  3.9 °C 30.20in /  1022.6hPa West 10.8mph /  17.4km/h 20mph /  32.2km/h 67.4% 0.00in /  0mm 149 W/m2
18:54 48.9 °F /  9.4 °C 39.2 °F /  4 °C 30.20in /  1022.6hPa West 10.1mph /  16.3km/h 20mph /  32.2km/h 69% 0.00in /  0mm 135 W/m2
18:59 48.9 °F /  9.4 °C 39.7 °F /  4.3 °C 30.20in /  1022.6hPa West 8.7mph /  14km/h 15mph /  24.1km/h 70.4% 0.00in /  0mm 121 W/m2
19:04 48.8 °F /  9.3 °C 40 °F /  4.4 °C 30.20in /  1022.6hPa West 12.9mph /  20.8km/h 18mph /  29km/h 71.4% 0.00in /  0mm 116 W/m2
19:09 48.6 °F /  9.2 °C 40.3 °F /  4.6 °C 30.20in /  1022.6hPa WSW 10.2mph /  16.4km/h 18mph /  29km/h 73% 0.00in /  0mm 90 W/m2
19:14 48.6 °F /  9.2 °C 40.3 °F /  4.6 °C 30.20in /  1022.6hPa West 8.4mph /  13.5km/h 16mph /  25.7km/h 73.2% 0.00in /  0mm 70 W/m2
19:19 48.4 °F /  9.1 °C 40.5 °F /  4.7 °C 30.20in /  1022.6hPa West 9.6mph /  15.4km/h 18mph /  29km/h 74% 0.00in /  0mm 56 W/m2
19:24 48.2 °F /  9 °C 40.6 °F /  4.8 °C 30.20in /  1022.6hPa West 7.4mph /  11.9km/h 15mph /  24.1km/h 74.8% 0.00in /  0mm 49 W/m2
19:29 48.2 °F /  9 °C 40.8 °F /  4.9 °C 30.20in /  1022.6hPa West 10.8mph /  17.4km/h 17mph /  27.4km/h 75.4% 0.00in /  0mm 44 W/m2
19:34 48 °F /  8.9 °C 40.8 °F /  4.9 °C 30.20in /  1022.6hPa West 10mph /  16.1km/h 18mph /  29km/h 76% 0.00in /  0mm 39 W/m2
19:39 48 °F /  8.9 °C 40.8 °F /  4.9 °C 30.20in /  1022.6hPa West 8.2mph /  13.2km/h 17mph /  27.4km/h 76% 0.00in /  0mm 25 W/m2
19:44 48 °F /  8.9 °C 41 °F /  5 °C 30.20in /  1022.6hPa West 8.2mph /  13.2km/h 13mph /  20.9km/h 76.4% 0.00in /  0mm 14 W/m2
19:49 48 °F /  8.9 °C 41.2 °F /  5.1 °C 30.20in /  1022.6hPa WNW 10.2mph /  16.4km/h 19mph /  30.6km/h 77% 0.00in /  0mm 12 W/m2
19:54 48 °F /  8.9 °C 41.2 °F /  5.1 °C 30.20in /  1022.6hPa WNW 9.2mph /  14.8km/h 18mph /  29km/h 77% 0.00in /  0mm 12 W/m2
19:59 47.9 °F /  8.8 °C 41.1 °F /  5.1 °C 30.20in /  1022.6hPa West 8.6mph /  13.8km/h 19mph /  30.6km/h 77% 0.00in /  0mm 11 W/m2
20:04 47.8 °F /  8.8 °C 41 °F /  5 °C 30.20in /  1022.6hPa West 10.4mph /  16.7km/h 19mph /  30.6km/h 77% 0.00in /  0mm 7 W/m2
20:09 47.8 °F /  8.8 °C 41 °F /  5 °C 30.19in /  1022.2hPa West 10.8mph /  17.4km/h 18mph /  29km/h 77% 0.00in /  0mm 0 W/m2
20:14 47.8 °F /  8.8 °C 41 °F /  5 °C 30.19in /  1022.2hPa West 9.7mph /  15.6km/h 18mph /  29km/h 77% 0.00in /  0mm 0 W/m2
20:19 47.8 °F /  8.8 °C 41 °F /  5 °C 30.19in /  1022.2hPa West 10mph /  16.1km/h 15mph /  24.1km/h 77% 0.00in /  0mm 0 W/m2
20:24 47.8 °F /  8.8 °C 41 °F /  5 °C 30.20in /  1022.6hPa West 11.2mph /  18km/h 18mph /  29km/h 77% 0.00in /  0mm 0 W/m2
20:29 47.8 °F /  8.8 °C 41 °F /  5 °C 30.20in /  1022.6hPa West 10mph /  16.1km/h 16mph /  25.7km/h 77.2% 0.00in /  0mm 0 W/m2
20:34 47.8 °F /  8.8 °C 41.3 °F /  5.2 °C 30.20in /  1022.6hPa West 9mph /  14.5km/h 15mph /  24.1km/h 78% 0.00in /  0mm 0 W/m2
20:39 47.7 °F /  8.7 °C 41.3 °F /  5.2 °C 30.20in /  1022.6hPa West 7.8mph /  12.6km/h 13mph /  20.9km/h 78% 0.00in /  0mm 0 W/m2
20:44 47.7 °F /  8.7 °C 41.2 °F /  5.1 °C 30.20in /  1022.6hPa West 7.8mph /  12.6km/h 13mph /  20.9km/h 78% 0.00in /  0mm 0 W/m2
20:49 47.7 °F /  8.7 °C 41.2 °F /  5.1 °C 30.19in /  1022.2hPa West 12.6mph /  20.3km/h 18mph /  29km/h 78% 0.00in /  0mm 0 W/m2
20:54 47.7 °F /  8.7 °C 41.2 °F /  5.1 °C 30.19in /  1022.2hPa West 9.2mph /  14.8km/h 18mph /  29km/h 78% 0.00in /  0mm 0 W/m2
20:59 47.7 °F /  8.7 °C 41.2 °F /  5.1 °C 30.19in /  1022.2hPa West 8.1mph /  13km/h 14mph /  22.5km/h 78% 0.00in /  0mm 0 W/m2
21:04 47.5 °F /  8.6 °C 41 °F /  5 °C 30.19in /  1022.2hPa West 8.4mph /  13.5km/h 14mph /  22.5km/h 78% 0.00in /  0mm 0 W/m2
21:09 47.5 °F /  8.6 °C 41 °F /  5 °C 30.19in /  1022.2hPa West 7.6mph /  12.2km/h 15mph /  24.1km/h 78% 0.00in /  0mm 0 W/m2
21:14 47.5 °F /  8.6 °C 41 °F /  5 °C 30.19in /  1022.2hPa West 7mph /  11.3km/h 13mph /  20.9km/h 78% 0.00in /  0mm 0 W/m2
21:19 47.5 °F /  8.6 °C 41 °F /  5 °C 30.19in /  1022.2hPa West 6.6mph /  10.6km/h 14mph /  22.5km/h 78% 0.00in /  0mm 0 W/m2
21:24 47.5 °F /  8.6 °C 41 °F /  5 °C 30.19in /  1022.2hPa West 9.7mph /  15.6km/h 16mph /  25.7km/h 78% 0.00in /  0mm 0 W/m2
21:29 47.5 °F /  8.6 °C 41 °F /  5 °C 30.19in /  1022.2hPa West 6.6mph /  10.6km/h 18mph /  29km/h 78.2% 0.00in /  0mm 0 W/m2
21:34 47.3 °F /  8.5 °C 40.9 °F /  4.9 °C 30.19in /  1022.2hPa West 10.3mph /  16.6km/h 16mph /  25.7km/h 78.2% 0.00in /  0mm 0 W/m2
21:39 47.1 °F /  8.4 °C 41 °F /  5 °C 30.19in /  1022.2hPa West 7.1mph /  11.4km/h 12mph /  19.3km/h 79% 0.00in /  0mm 0 W/m2
21:44 47.1 °F /  8.4 °C 41.2 °F /  5.1 °C 30.19in /  1022.2hPa West 8.6mph /  13.8km/h 17mph /  27.4km/h 79.4% 0.00in /  0mm 0 W/m2
21:49 47.1 °F /  8.4 °C 41.4 °F /  5.2 °C 30.19in /  1022.2hPa West 7.1mph /  11.4km/h 20mph /  32.2km/h 80.2% 0.00in /  0mm 0 W/m2
21:54 47.1 °F /  8.4 °C 41.5 °F /  5.3 °C 30.19in /  1022.2hPa West 8.4mph /  13.5km/h 14mph /  22.5km/h 81% 0.00in /  0mm 0 W/m2
21:59 46.9 °F /  8.3 °C 41.4 °F /  5.2 °C 30.19in /  1022.2hPa West 10.9mph /  17.5km/h 16mph /  25.7km/h 81% 0.00in /  0mm 0 W/m2
22:04 46.9 °F /  8.3 °C 41.7 °F /  5.4 °C 30.18in /  1021.9hPa West 7.6mph /  12.2km/h 16mph /  25.7km/h 82% 0.00in /  0mm 0 W/m2
22:09 46.8 °F /  8.2 °C 41.8 °F /  5.4 °C 30.18in /  1021.9hPa West 6.7mph /  10.8km/h 12mph /  19.3km/h 82.8% 0.00in /  0mm 0 W/m2
22:14 46.8 °F /  8.2 °C 41.9 °F /  5.5 °C 30.18in /  1021.9hPa West 6.2mph /  10km/h 13mph /  20.9km/h 83% 0.00in /  0mm 0 W/m2
22:19 46.6 °F /  8.1 °C 41.9 °F /  5.5 °C 30.18in /  1021.9hPa West 6.7mph /  10.8km/h 13mph /  20.9km/h 83.6% 0.00in /  0mm 0 W/m2
22:24 46.7 °F /  8.2 °C 42.2 °F /  5.7 °C 30.17in /  1021.6hPa West 6.3mph /  10.1km/h 13mph /  20.9km/h 84% 0.00in /  0mm 0 W/m2
22:29 46.8 °F /  8.2 °C 42.3 °F /  5.7 °C 30.17in /  1021.6hPa West 6.8mph /  10.9km/h 11mph /  17.7km/h 84% 0.00in /  0mm 0 W/m2
22:34 46.8 °F /  8.2 °C 42.3 °F /  5.7 °C 30.17in /  1021.6hPa West 9.4mph /  15.1km/h 14mph /  22.5km/h 84.2% 0.00in /  0mm 0 W/m2
22:39 46.8 °F /  8.2 °C 42.4 °F /  5.8 °C 30.17in /  1021.6hPa West 8.1mph /  13km/h 13mph /  20.9km/h 85% 0.00in /  0mm 0 W/m2
22:44 46.9 °F /  8.3 °C 42.5 °F /  5.8 °C 30.17in /  1021.6hPa West 8.5mph /  13.7km/h 14mph /  22.5km/h 85% 0.00in /  0mm 0 W/m2
22:49 46.9 °F /  8.3 °C 42.6 °F /  5.9 °C 30.16in /  1021.2hPa West 8.7mph /  14km/h 14mph /  22.5km/h 85% 0.00in /  0mm 0 W/m2
22:54 46.9 °F /  8.3 °C 42.6 °F /  5.9 °C 30.16in /  1021.2hPa West 8.4mph /  13.5km/h 13mph /  20.9km/h 85% 0.00in /  0mm 0 W/m2
22:59 46.9 °F /  8.3 °C 42.6 °F /  5.9 °C 30.16in /  1021.2hPa West 7mph /  11.3km/h 13mph /  20.9km/h 85% 0.00in /  0mm 0 W/m2
23:04 46.9 °F /  8.3 °C 42.6 °F /  5.9 °C 30.16in /  1021.2hPa West 7.8mph /  12.6km/h 14mph /  22.5km/h 85% 0.00in /  0mm 0 W/m2
23:09 47.1 °F /  8.4 °C 43.1 °F /  6.2 °C 30.16in /  1021.2hPa West 9.6mph /  15.4km/h 18mph /  29km/h 85.8% 0.00in /  0mm 0 W/m2
23:14 47.1 °F /  8.4 °C 43 °F /  6.1 °C 30.16in /  1021.2hPa West 6.9mph /  11.1km/h 18mph /  29km/h 85.6% 0.00in /  0mm 0 W/m2
23:19 47.1 °F /  8.4 °C 43.2 °F /  6.2 °C 30.16in /  1021.2hPa WNW 6.6mph /  10.6km/h 14mph /  22.5km/h 86% 0.00in /  0mm 0 W/m2
23:24 47.1 °F /  8.4 °C 43.2 °F /  6.2 °C 30.16in /  1021.2hPa West 6.8mph /  10.9km/h 15mph /  24.1km/h 86% 0.00in /  0mm 0 W/m2
23:29 47.2 °F /  8.4 °C 43.3 °F /  6.3 °C 30.16in /  1021.2hPa West 6mph /  9.7km/h 16mph /  25.7km/h 86% 0.00in /  0mm 0 W/m2
23:34 47.3 °F /  8.5 °C 43.3 °F /  6.3 °C 30.16in /  1021.2hPa West 6.8mph /  10.9km/h 16mph /  25.7km/h 86% 0.00in /  0mm 0 W/m2
23:39 47.5 °F /  8.6 °C 43.5 °F /  6.4 °C 30.16in /  1021.2hPa West 6.6mph /  10.6km/h 14mph /  22.5km/h 86% 0.00in /  0mm 0 W/m2
23:44 47.5 °F /  8.6 °C 43.6 °F /  6.4 °C 30.16in /  1021.2hPa West 10.5mph /  16.9km/h 14mph /  22.5km/h 86.2% 0.00in /  0mm 0 W/m2
23:49 47.6 °F /  8.7 °C 44 °F /  6.7 °C 30.16in /  1021.2hPa West 9mph /  14.5km/h 13mph /  20.9km/h 87% 0.00in /  0mm 0 W/m2
23:54 47.7 °F /  8.7 °C 44.1 °F /  6.7 °C 30.16in /  1021.2hPa West 7.1mph /  11.4km/h 14mph /  22.5km/h 87% 0.00in /  0mm 0 W/m2
23:59 47.7 °F /  8.7 °C 44.1 °F /  6.7 °C 30.16in /  1021.2hPa West 9.2mph /  14.8km/h 14mph /  22.5km/h 87% 0.00in /  0mm 0 W/m2
Bath Spa Weather
Compliments of Weather Underground - 2 mb